Tilos, Greece
Current Conditions -  °F | °C
As of 1:20 AM on Thursday 23 Oct 2014 (Local Time) from LGKO Reporting Station
Scattered Clouds Scattered Clouds  
Wind Chill: 70°   Ceiling: Unl
Heat Index: 70°   Visibility: 6mi
Dew Point: 59°   Wind: 16mph
Humidity: 68%   Direction: 170°S
Pressure: 29.83"   Gusts: NA
Location:  36.42°N, 27.37°E
Report Text: LGKO 222320Z 17014KT 9999 FEW018TCU SCT020 21/15 Q1010
Loading
Personal Weather Stations






























Interactive Weather Map
Tropical Storm Tracking
New forecast layout! Learn more

10-Day Weather Forecast

Advertisements
Track Severe Weather on mobile